»·PEaware :: AAL491 KSFO-KLAX

AAL491 :: KSFO-KLAX

FLIGHT INFORMATION

Flight Status: Arrived
Operator:
American Airlines
More flights by this operator :: More flights under this callsign
Pilot: Jim M. (18055)
Aircraft: BOEING 777-200
(B772)
More flights by this aircraft type
Origin: KSFO San Francisco Intl
United States
Destination: KLAX Los Angeles Intl
United States
More flights between these airports :: More routes between these airports
Route: +WESLA4 EBAYE BURGL IRNMN2
File this flight plan on PilotEdge
Remarks:
Altitude:
(Current/Filed)
37,000ft
Speed:
(Current/Filed)
450kts
Departed: 18-May-19 11:35 AM
Arrived: 18-May-19 12:29 PM
Distance/Time
Traveled:
293nm/0:54
Distance/Time
To Go:
Arrived

Flight Plot

Page will automatically refresh every two minutes.


Map Options




Map Legend


Flown Route
Filed Route
Departure Airport
Arrival Airport
Navaid (VOR, NDB)
Fix

Horizontal Profiles

Position Reports

Time Latitude Longitude Heading Altitude Ground
Speed
18-May-19 10:37 37.614224 -122.382296 351 26ft 0kts
18-May-19 10:38 37.614224 -122.382296 351 26ft 0kts
18-May-19 10:39 37.614224 -122.382296 351 26ft 0kts
18-May-19 10:40 37.614224 -122.382296 351 26ft 0kts
18-May-19 10:41 37.614224 -122.382296 351 26ft 0kts
18-May-19 10:42 37.614224 -122.382296 351 26ft 0kts
18-May-19 10:43 37.614224 -122.382296 351 26ft 0kts
18-May-19 10:44 37.614224 -122.382296 351 26ft 0kts
18-May-19 10:45 37.614224 -122.382296 351 26ft 0kts
18-May-19 10:46 37.614224 -122.382296 351 26ft 0kts
18-May-19 10:47 37.614224 -122.382296 351 26ft 0kts
18-May-19 10:48 37.614224 -122.382296 351 26ft 0kts
18-May-19 10:49 37.614224 -122.382296 351 26ft 0kts
18-May-19 10:50 37.614224 -122.382296 351 26ft 0kts
18-May-19 10:51 37.614224 -122.382296 351 26ft 0kts
18-May-19 10:52 37.614224 -122.382296 351 26ft 0kts
18-May-19 10:53 37.614224 -122.382296 351 26ft 0kts
18-May-19 10:54 37.614224 -122.382296 351 26ft 0kts
18-May-19 10:55 37.614224 -122.382296 351 26ft 0kts
18-May-19 10:56 37.614224 -122.382296 351 26ft 0kts
18-May-19 10:57 37.614224 -122.382296 351 26ft 0kts
18-May-19 10:58 37.614224 -122.382296 351 26ft 0kts
18-May-19 10:59 37.614224 -122.382296 351 26ft 0kts
18-May-19 11:00 37.614224 -122.382296 351 26ft 0kts
18-May-19 11:01 37.614224 -122.382296 351 26ft 0kts
18-May-19 11:02 37.614224 -122.382296 351 26ft 0kts
18-May-19 11:03 37.614224 -122.382296 351 26ft 0kts
18-May-19 11:04 37.614224 -122.382296 351 26ft 0kts
18-May-19 11:05 37.614224 -122.382296 351 26ft 0kts
18-May-19 11:06 37.614224 -122.382296 351 26ft 0kts
18-May-19 11:07 37.614224 -122.382296 351 26ft 0kts
18-May-19 11:08 37.614224 -122.382296 351 26ft 0kts
18-May-19 11:09 37.614224 -122.382296 351 26ft 0kts
18-May-19 11:10 37.614224 -122.382296 351 26ft 0kts
18-May-19 11:11 37.614224 -122.382296 351 26ft 0kts
18-May-19 11:12 37.614224 -122.382296 351 26ft 0kts
18-May-19 11:13 37.613693 -122.382368 36 26ft 2kts
18-May-19 11:14 37.613474 -122.382824 77 26ft 0kts
18-May-19 11:15 37.613474 -122.382824 77 26ft 0kts
18-May-19 11:16 37.613474 -122.382823 77 26ft 0kts
18-May-19 11:17 37.613474 -122.382823 77 26ft 0kts
18-May-19 11:18 37.613474 -122.382823 77 26ft 0kts
18-May-19 11:19 37.613474 -122.382823 77 26ft 0kts
18-May-19 11:20 37.613489 -122.382718 82 26ft 2kts
18-May-19 11:21 37.612398 -122.382459 203 26ft 5kts
18-May-19 11:22 37.610417 -122.383720 211 26ft 12kts
18-May-19 11:23 37.607420 -122.384897 178 26ft 10kts
18-May-19 11:24 37.605514 -122.382941 125 26ft 8kts
18-May-19 11:25 37.605900 -122.379403 33 26ft 12kts
18-May-19 11:26 37.608596 -122.377622 28 26ft 9kts
18-May-19 11:27 37.611583 -122.375579 28 26ft 23kts
18-May-19 11:28 37.615097 -122.373226 38 26ft 9kts
18-May-19 11:29 37.615318 -122.370517 118 26ft 9kts
18-May-19 11:30 37.613643 -122.367619 122 26ft 9kts
18-May-19 11:31 37.611613 -122.362879 117 26ft 15kts
18-May-19 11:32 37.610816 -122.359233 42 26ft 0kts
18-May-19 11:33 37.611854 -122.358898 316 26ft 7kts
18-May-19 11:34 37.625774 -122.393015 294 1704ft 184kts
18-May-19 11:35 37.655056 -122.460090 296 3245ft 240kts
18-May-19 11:36 37.652993 -122.534768 212 7070ft 242kts
18-May-19 11:37 37.583840 -122.521975 161 11288ft 286kts
18-May-19 11:38 37.502044 -122.474840 150 14514ft 366kts
18-May-19 11:39 37.422220 -122.382077 139 18405ft 409kts
18-May-19 11:40 37.341846 -122.274026 139 21807ft 438kts
18-May-19 11:41 37.255875 -122.158138 139 25078ft 470kts
18-May-19 11:42 37.163904 -122.033283 141 28001ft 502kts
18-May-19 11:43 37.066578 -121.902162 142 30773ft 529kts
18-May-19 11:44 36.965193 -121.766823 143 33499ft 536kts
18-May-19 11:45 36.863274 -121.631085 144 36174ft 530kts
18-May-19 11:46 36.762356 -121.497224 144 37027ft 529kts
18-May-19 11:47 36.661259 -121.363658 144 37025ft 529kts
18-May-19 11:48 36.560058 -121.230118 144 37028ft 531kts
18-May-19 11:49 36.458328 -121.097132 144 37027ft 530kts
18-May-19 11:50 36.359168 -120.959324 140 37022ft 538kts
18-May-19 11:51 36.261819 -120.819108 140 37031ft 536kts
18-May-19 11:52 36.164378 -120.679586 140 37033ft 537kts
18-May-19 11:54 36.066539 -120.539988 140 37038ft 538kts
18-May-19 11:55 35.968124 -120.400505 140 37034ft 538kts
18-May-19 11:56 35.867841 -120.264139 149 37034ft 524kts
18-May-19 11:57 35.748408 -120.169755 160 37034ft 510kts
18-May-19 11:58 35.627263 -120.078530 159 37046ft 510kts
18-May-19 11:59 35.506525 -119.987294 159 37044ft 510kts
18-May-19 12:00 35.385888 -119.896812 159 35951ft 499kts
18-May-19 12:01 35.266795 -119.806001 154 33139ft 512kts
18-May-19 12:02 35.153116 -119.697610 150 30873ft 526kts
18-May-19 12:03 35.038906 -119.590878 150 28629ft 506kts
18-May-19 12:04 34.928576 -119.488686 150 26430ft 488kts
18-May-19 12:05 34.820280 -119.391221 150 25044ft 468kts
18-May-19 12:06 34.719260 -119.301516 151 23683ft 441kts
18-May-19 12:07 34.620712 -119.215799 151 21882ft 422kts
18-May-19 12:08 34.526344 -119.133619 149 19855ft 409kts
18-May-19 12:09 34.435838 -119.053583 150 18168ft 396kts
18-May-19 12:10 34.348317 -118.977865 149 16028ft 373kts
18-May-19 12:11 34.268135 -118.905346 147 14062ft 347kts
18-May-19 12:12 34.192381 -118.835810 146 12499ft 337kts
18-May-19 12:13 34.122397 -118.765355 139 11186ft 321kts
18-May-19 12:14 34.059413 -118.695946 139 9915ft 298kts
18-May-19 12:15 34.023725 -118.611112 98 8700ft 276kts
18-May-19 12:15 34.017995 -118.538529 96 7855ft 253kts
18-May-19 12:17 34.012716 -118.442971 84 6869ft 242kts
18-May-19 12:18 34.022679 -118.363146 81 5832ft 235kts
18-May-19 12:18 34.030908 -118.299238 82 5077ft 227kts
18-May-19 12:19 34.040594 -118.224029 81 4994ft 229kts
18-May-19 12:21 34.051982 -118.135520 81 5000ft 228kts
18-May-19 12:21 34.032181 -118.084815 164 4994ft 223kts
18-May-19 12:22 33.976792 -118.101219 226 5001ft 194kts
18-May-19 12:23 33.960868 -118.161744 258 3933ft 188kts
18-May-19 12:24 33.954165 -118.221008 261 2732ft 161kts
18-May-19 12:25 33.949081 -118.270582 261 1982ft 142kts
18-May-19 12:26 33.943957 -118.317060 262 1202ft 138kts
18-May-19 12:27 33.939489 -118.362886 264 467ft 137kts
18-May-19 12:28 33.936056 -118.397309 269 140ft 31kts
18-May-19 12:29 33.936619 -118.399559 292 139ft 0kts
18-May-19 12:30 33.937495 -118.401146 312 139ft 14kts
18-May-19 12:31 33.940218 -118.402916 44 139ft 5kts
18-May-19 12:32 33.940305 -118.402694 78 139ft 0kts

Navigation Log

Ident Type
Flight plan parsing failed, navigation log unavailable